This demonstration page uses our WeatherBlox Daily Observations layout. Learn more.

39.01783, -85.05884

Hourly Observations for May 16, 2019

Temp ( °F °C ) Dew Point ( °F °C ) Humidity (%) Winds ( mph kmh ) Pressure ( in mb ) Visibility ( mi km ) Precip ( " mm )
12:52 am 00:52 Mostly Clear 53 11.7 49 9.4 86 86 SSW 5 7 29.97 1015 10 16.09344 0 0
1:52 am 01:52 Clear 55 12.8 47 8.3 74 74 SSW 8 13 29.94 1014 10 16.09344 0 0
2:52 am 02:52 Mostly Clear 55 12.8 47 8.3 74 74 SSW 7 11 29.94 1014 10 16.09344 0 0
3:52 am 03:52 Mostly Cloudy 52 11.1 46 7.8 80 80 SSW 5 7 29.94 1014 10 16.09344 0 0
4:52 am 04:52 Mostly Cloudy 52 11.1 47 8.3 83 83 Calm 29.97 1015 10 16.09344 0 0
5:52 am 05:52 Mostly Cloudy 49 9.4 46 7.8 90 90 SSW 3 6 29.97 1015 10 16.09344 0 0
6:52 am 06:52 Mostly Cloudy 49 9.4 46 7.8 90 90 SSW 5 7 29.97 1015 9 14.484096 0 0
7:52 am 07:52 Mostly Cloudy 52 11.1 49 9.4 89 89 SSW 5 7 30 1016 8 12.874752 0 0
8:52 am 08:52 Mostly Cloudy with Haze 62 16.7 55 12.8 78 78 SW 5 7 30 1016 6 9.656064 0 0
9:52 am 09:52 Partly Cloudy 66 18.9 56 13.3 70 70 SW 7 11 29.97 1015 8 12.874752 0 0
10:52 am 10:52 Partly Cloudy 68 20 56 13.3 65 65 SSW 8 13 29.97 1015 10 16.09344 0 0
11:52 am 11:52 Partly Cloudy 71 21.7 55 12.8 57 57 SSW 10 17 29.97 1015 10 16.09344 0 0
12:52 pm 12:52 Partly Cloudy 73 22.8 53 11.7 50 50 SSW 10 17 29.94 1014 10 16.09344 0 0
1:52 pm 13:52 Mostly Cloudy 75 23.9 55 12.8 50 50 SSW 7 11 29.91 1013 10 16.09344 0 0
2:52 pm 14:52 Mostly Cloudy 76 24.4 56 13.3 50 50 SSW 10 17 29.88 1012 10 16.09344 0 0
4:52 pm 16:52 Mostly Cloudy 77 25 55 12.8 47 47 SW 13 20 29.85 1011 10 16.09344 0 0
5:52 pm 17:52 Cloudy 75 23.9 56 13.3 52 52 S 10 17 29.85 1011 10 16.09344 0 0
6:52 pm 18:52 Cloudy 73 22.8 56 13.3 55 55 SSW 6 9 29.85 1011 10 16.09344 0 0
7:52 pm 19:52 Cloudy with Light Rain 69 20.6 61 16.1 76 76 NW 12 19 29.88 1012 8 12.874752 0.02 0.508
8:52 pm 20:52 Cloudy with Light Rain 65 18.3 62 16.7 90 90 SSE 9 15 29.85 1011 6 9.656064 0.15 3.81
9:52 pm 21:52 Cloudy 66 18.9 61 16.1 84 84 S 9 15 29.8 1009 10 16.09344 0.03 0.762
10:52 pm 22:52 Cloudy 64 17.8 60 15.6 87 87 SSW 8 13 29.8 1009 10 16.09344 0 0
11:52 pm 23:52 Cloudy 63 17.2 60 15.6 90 90 SSW 12 19 29.8 1009 10 16.09344 0 0

Powered by AerisWeather